sensor_id;sensor_type;location;lat;lon;timestamp;P1;P2;P0
78512;PMS5003;67809;55.034;73.462;2023-03-01T00:01:47;19.75;15.00;9.00
78512;PMS5003;67809;55.034;73.462;2023-03-01T00:04:13;21.50;15.75;10.00
78512;PMS5003;67809;55.034;73.462;2023-03-01T00:06:39;21.00;17.00;10.00
78512;PMS5003;67809;55.034;73.462;2023-03-01T00:09:05;17.25;15.00;9.50
78512;PMS5003;67809;55.034;73.462;2023-03-01T00:11:36;20.00;16.00;9.00
78512;PMS5003;67809;55.034;73.462;2023-03-01T00:14:13;19.75;14.75;9.25
78512;PMS5003;67809;55.034;73.462;2023-03-01T00:16:40;18.67;15.00;10.00
78512;PMS5003;67809;55.034;73.462;2023-03-01T00:19:13;19.25;15.50;9.00
78512;PMS5003;67809;55.034;73.462;2023-03-01T00:21:39;16.00;14.00;9.00
78512;PMS5003;67809;55.034;73.462;2023-03-01T00:24:15;17.00;14.00;9.00
78512;PMS5003;67809;55.034;73.462;2023-03-01T00:26:41;17.33;13.67;9.00
78512;PMS5003;67809;55.034;73.462;2023-03-01T00:29:07;19.00;14.75;9.00
78512;PMS5003;67809;55.034;73.462;2023-03-01T00:31:34;20.00;16.00;9.75
78512;PMS5003;67809;55.034;73.462;2023-03-01T00:34:01;19.00;15.00;9.00
78512;PMS5003;67809;55.034;73.462;2023-03-01T00:36:29;20.33;15.00;9.00
78512;PMS5003;67809;55.034;73.462;2023-03-01T00:39:07;19.75;15.50;8.25
78512;PMS5003;67809;55.034;73.462;2023-03-01T00:41:33;18.25;14.00;8.75
78512;PMS5003;67809;55.034;73.462;2023-03-01T00:44:06;19.00;15.75;9.00
78512;PMS5003;67809;55.034;73.462;2023-03-01T00:46:36;20.00;16.00;10.00
78512;PMS5003;67809;55.034;73.462;2023-03-01T00:49:03;20.00;16.00;10.00
78512;PMS5003;67809;55.034;73.462;2023-03-01T00:51:40;20.75;17.00;11.00
78512;PMS5003;67809;55.034;73.462;2023-03-01T00:54:07;22.00;15.50;10.00
78512;PMS5003;67809;55.034;73.462;2023-03-01T00:56:34;26.00;21.00;12.00
78512;PMS5003;67809;55.034;73.462;2023-03-01T00:59:00;25.00;20.50;12.75
78512;PMS5003;67809;55.034;73.462;2023-03-01T01:01:28;22.75;19.00;11.50
78512;PMS5003;67809;55.034;73.462;2023-03-01T01:03:59;18.25;14.25;9.00
78512;PMS5003;67809;55.034;73.462;2023-03-01T01:06:34;23.25;16.00;10.00
78512;PMS5003;67809;55.034;73.462;2023-03-01T01:09:02;18.50;14.00;9.00
78512;PMS5003;67809;55.034;73.462;2023-03-01T01:11:33;22.00;18.00;11.00
78512;PMS5003;67809;55.034;73.462;2023-03-01T01:14:12;24.75;20.25;12.00
78512;PMS5003;67809;55.034;73.462;2023-03-01T01:16:43;20.00;16.33;10.00
78512;PMS5003;67809;55.034;73.462;2023-03-01T01:19:19;20.50;17.00;10.25
78512;PMS5003;67809;55.034;73.462;2023-03-01T01:21:45;18.50;15.50;11.00
78512;PMS5003;67809;55.034;73.462;2023-03-01T01:24:18;20.00;16.00;10.00
78512;PMS5003;67809;55.034;73.462;2023-03-01T01:26:50;21.00;16.25;10.00
78512;PMS5003;67809;55.034;73.462;2023-03-01T01:29:16;31.00;23.00;13.00
78512;PMS5003;67809;55.034;73.462;2023-03-01T01:31:42;26.25;20.50;11.75
78512;PMS5003;67809;55.034;73.462;2023-03-01T01:34:12;24.50;20.00;11.50
78512;PMS5003;67809;55.034;73.462;2023-03-01T01:36:38;24.67;20.00;13.00
78512;PMS5003;67809;55.034;73.462;2023-03-01T01:39:05;22.75;18.00;11.00
78512;PMS5003;67809;55.034;73.462;2023-03-01T01:41:31;26.75;22.00;13.00
78512;PMS5003;67809;55.034;73.462;2023-03-01T01:46:44;24.00;19.00;11.00
78512;PMS5003;67809;55.034;73.462;2023-03-01T01:51:46;27.00;21.00;12.00
78512;PMS5003;67809;55.034;73.462;2023-03-01T01:54:25;25.75;20.00;13.00
78512;PMS5003;67809;55.034;73.462;2023-03-01T01:57:03;28.67;21.00;13.00
78512;PMS5003;67809;55.034;73.462;2023-03-01T01:59:30;27.50;22.50;15.00
78512;PMS5003;67809;55.034;73.462;2023-03-01T02:02:07;26.00;19.75;11.00
78512;PMS5003;67809;55.034;73.462;2023-03-01T02:04:33;25.75;20.75;13.00
78512;PMS5003;67809;55.034;73.462;2023-03-01T02:09:30;27.50;20.50;13.00
78512;PMS5003;67809;55.034;73.462;2023-03-01T02:11:58;25.00;20.00;12.00
78512;PMS5003;67809;55.034;73.462;2023-03-01T02:14:27;32.00;24.00;14.50
78512;PMS5003;67809;55.034;73.462;2023-03-01T02:16:53;31.33;24.67;16.00
78512;PMS5003;67809;55.034;73.462;2023-03-01T02:19:31;31.50;24.75;15.00
78512;PMS5003;67809;55.034;73.462;2023-03-01T02:22:10;30.00;24.00;15.00
78512;PMS5003;67809;55.034;73.462;2023-03-01T02:27:40;35.25;27.00;17.00
78512;PMS5003;67809;55.034;73.462;2023-03-01T02:30:13;32.00;25.50;15.00
78512;PMS5003;67809;55.034;73.462;2023-03-01T02:32:40;34.00;25.00;16.00
78512;PMS5003;67809;55.034;73.462;2023-03-01T02:35:12;31.25;24.25;16.00
78512;PMS5003;67809;55.034;73.462;2023-03-01T02:37:39;32.33;25.00;16.00
78512;PMS5003;67809;55.034;73.462;2023-03-01T02:40:06;33.00;27.00;17.00
78512;PMS5003;67809;55.034;73.462;2023-03-01T02:42:40;34.00;27.00;16.00
78512;PMS5003;67809;55.034;73.462;2023-03-01T02:45:11;36.25;27.00;17.00
78512;PMS5003;67809;55.034;73.462;2023-03-01T02:47:37;34.00;26.67;17.00
78512;PMS5003;67809;55.034;73.462;2023-03-01T02:50:09;43.00;32.75;19.00
78512;PMS5003;67809;55.034;73.462;2023-03-01T02:52:46;32.25;25.75;15.75
78512;PMS5003;67809;55.034;73.462;2023-03-01T02:55:24;33.25;26.50;16.50
78512;PMS5003;67809;55.034;73.462;2023-03-01T02:57:50;33.25;26.00;17.00
78512;PMS5003;67809;55.034;73.462;2023-03-01T03:00:18;35.00;28.00;17.00
78512;PMS5003;67809;55.034;73.462;2023-03-01T03:02:46;35.00;27.00;16.00
78512;PMS5003;67809;55.034;73.462;2023-03-01T03:05:24;31.75;25.00;15.00
78512;PMS5003;67809;55.034;73.462;2023-03-01T03:07:54;31.00;23.50;14.75
78512;PMS5003;67809;55.034;73.462;2023-03-01T03:10:22;28.00;24.00;15.00
78512;PMS5003;67809;55.034;73.462;2023-03-01T03:13:00;31.75;25.00;15.00
78512;PMS5003;67809;55.034;73.462;2023-03-01T03:15:31;34.00;26.25;16.00
78512;PMS5003;67809;55.034;73.462;2023-03-01T03:17:58;29.67;23.00;14.00
78512;PMS5003;67809;55.034;73.462;2023-03-01T03:20:25;35.00;27.00;16.00
78512;PMS5003;67809;55.034;73.462;2023-03-01T03:23:03;34.00;25.00;16.00
78512;PMS5003;67809;55.034;73.462;2023-03-01T03:25:29;33.75;26.00;14.50
78512;PMS5003;67809;55.034;73.462;2023-03-01T03:27:56;41.00;30.00;19.00
78512;PMS5003;67809;55.034;73.462;2023-03-01T03:30:23;36.75;29.00;20.00
78512;PMS5003;67809;55.034;73.462;2023-03-01T03:32:55;42.00;30.25;19.00
78512;PMS5003;67809;55.034;73.462;2023-03-01T03:35:30;37.25;28.75;17.25
78512;PMS5003;67809;55.034;73.462;2023-03-01T03:37:57;41.00;32.00;20.33
78512;PMS5003;67809;55.034;73.462;2023-03-01T03:40:28;44.75;35.00;22.00
78512;PMS5003;67809;55.034;73.462;2023-03-01T03:42:55;44.75;34.75;21.75
78512;PMS5003;67809;55.034;73.462;2023-03-01T03:45:21;48.00;37.00;22.00
78512;PMS5003;67809;55.034;73.462;2023-03-01T03:47:47;46.00;35.00;22.00
78512;PMS5003;67809;55.034;73.462;2023-03-01T03:50:19;50.00;37.25;24.00
78512;PMS5003;67809;55.034;73.462;2023-03-01T03:52:45;46.75;36.00;23.00
78512;PMS5003;67809;55.034;73.462;2023-03-01T03:55:21;53.50;40.00;24.00
78512;PMS5003;67809;55.034;73.462;2023-03-01T03:57:48;50.00;38.00;23.67
78512;PMS5003;67809;55.034;73.462;2023-03-01T04:00:22;48.00;35.00;22.50
78512;PMS5003;67809;55.034;73.462;2023-03-01T04:02:54;51.00;38.00;23.00
78512;PMS5003;67809;55.034;73.462;2023-03-01T04:05:22;44.00;34.75;21.25
78512;PMS5003;67809;55.034;73.462;2023-03-01T04:07:48;42.00;33.00;21.00
78512;PMS5003;67809;55.034;73.462;2023-03-01T04:10:19;46.50;35.00;21.00
78512;PMS5003;67809;55.034;73.462;2023-03-01T04:12:50;46.00;35.00;23.00
78512;PMS5003;67809;55.034;73.462;2023-03-01T04:15:16;45.00;35.25;21.75
78512;PMS5003;67809;55.034;73.462;2023-03-01T04:17:42;46.00;35.00;21.33
78512;PMS5003;67809;55.034;73.462;2023-03-01T04:20:13;45.50;34.25;21.00
78512;PMS5003;67809;55.034;73.462;2023-03-01T04:22:40;47.50;36.00;23.00
78512;PMS5003;67809;55.034;73.462;2023-03-01T04:25:06;40.50;32.00;20.50
78512;PMS5003;67809;55.034;73.462;2023-03-01T04:27:33;38.00;30.00;19.00
78512;PMS5003;67809;55.034;73.462;2023-03-01T04:29:59;37.50;30.00;19.25
78512;PMS5003;67809;55.034;73.462;2023-03-01T04:32:35;40.25;32.00;20.25
78512;PMS5003;67809;55.034;73.462;2023-03-01T04:35:07;41.00;32.00;21.00
78512;PMS5003;67809;55.034;73.462;2023-03-01T04:37:33;37.00;29.00;19.00
78512;PMS5003;67809;55.034;73.462;2023-03-01T04:40:01;39.00;32.00;20.00
78512;PMS5003;67809;55.034;73.462;2023-03-01T04:42:47;33.00;25.75;16.25
78512;PMS5003;67809;55.034;73.462;2023-03-01T04:45:13;33.00;27.00;18.00
78512;PMS5003;67809;55.034;73.462;2023-03-01T04:47:40;38.25;29.75;19.00
78512;PMS5003;67809;55.034;73.462;2023-03-01T04:50:07;33.50;27.00;17.00
78512;PMS5003;67809;55.034;73.462;2023-03-01T04:52:33;32.00;26.00;16.00
78512;PMS5003;67809;55.034;73.462;2023-03-01T04:54:59;35.00;26.75;17.00
78512;PMS5003;67809;55.034;73.462;2023-03-01T04:57:25;29.75;25.00;16.50
78512;PMS5003;67809;55.034;73.462;2023-03-01T04:59:51;33.67;27.00;17.67
78512;PMS5003;67809;55.034;73.462;2023-03-01T05:02:22;34.00;27.00;16.75
78512;PMS5003;67809;55.034;73.462;2023-03-01T05:04:58;32.75;26.00;17.00
78512;PMS5003;67809;55.034;73.462;2023-03-01T05:07:24;31.75;25.75;17.00
78512;PMS5003;67809;55.034;73.462;2023-03-01T05:09:56;33.00;26.00;16.00
78512;PMS5003;67809;55.034;73.462;2023-03-01T05:12:23;33.00;26.25;17.00
78512;PMS5003;67809;55.034;73.462;2023-03-01T05:14:49;33.50;27.00;17.00
78512;PMS5003;67809;55.034;73.462;2023-03-01T05:17:26;35.50;27.25;18.00
78512;PMS5003;67809;55.034;73.462;2023-03-01T05:20:03;41.50;31.00;20.00
78512;PMS5003;67809;55.034;73.462;2023-03-01T05:22:43;39.25;30.00;20.00
78512;PMS5003;67809;55.034;73.462;2023-03-01T05:25:10;38.75;30.00;18.00
78512;PMS5003;67809;55.034;73.462;2023-03-01T05:27:40;39.00;28.00;17.75
78512;PMS5003;67809;55.034;73.462;2023-03-01T05:30:06;37.50;30.00;18.00
78512;PMS5003;67809;55.034;73.462;2023-03-01T05:32:45;40.25;31.00;20.00
78512;PMS5003;67809;55.034;73.462;2023-03-01T05:35:12;39.00;31.00;19.75
78512;PMS5003;67809;55.034;73.462;2023-03-01T05:37:39;39.50;30.25;19.00
78512;PMS5003;67809;55.034;73.462;2023-03-01T05:40:11;45.00;34.00;20.00
78512;PMS5003;67809;55.034;73.462;2023-03-01T05:42:48;37.50;28.75;18.25
78512;PMS5003;67809;55.034;73.462;2023-03-01T05:45:21;41.00;31.00;20.00
78512;PMS5003;67809;55.034;73.462;2023-03-01T05:47:48;46.50;33.50;20.00
78512;PMS5003;67809;55.034;73.462;2023-03-01T05:50:24;35.00;28.00;18.50
78512;PMS5003;67809;55.034;73.462;2023-03-01T05:52:51;40.00;32.00;21.00
78512;PMS5003;67809;55.034;73.462;2023-03-01T05:55:18;34.00;27.00;17.00
78512;PMS5003;67809;55.034;73.462;2023-03-01T05:57:49;36.50;28.00;17.00
78512;PMS5003;67809;55.034;73.462;2023-03-01T06:00:17;33.00;27.00;17.00
78512;PMS5003;67809;55.034;73.462;2023-03-01T06:02:44;32.75;25.00;15.00
78512;PMS5003;67809;55.034;73.462;2023-03-01T06:05:11;30.50;24.00;15.00
78512;PMS5003;67809;55.034;73.462;2023-03-01T06:07:37;32.50;25.50;15.75
78512;PMS5003;67809;55.034;73.462;2023-03-01T06:10:09;35.00;28.00;18.00
78512;PMS5003;67809;55.034;73.462;2023-03-01T06:12:36;33.50;25.75;16.50
78512;PMS5003;67809;55.034;73.462;2023-03-01T06:15:02;33.00;27.00;17.00
78512;PMS5003;67809;55.034;73.462;2023-03-01T06:17:30;43.00;31.00;20.00
78512;PMS5003;67809;55.034;73.462;2023-03-01T06:20:02;34.25;27.00;17.00
78512;PMS5003;67809;55.034;73.462;2023-03-01T06:22:38;33.00;25.50;16.25
78512;PMS5003;67809;55.034;73.462;2023-03-01T06:25:04;33.25;27.50;17.00
78512;PMS5003;67809;55.034;73.462;2023-03-01T06:27:31;36.75;28.25;17.75
78512;PMS5003;67809;55.034;73.462;2023-03-01T06:29:57;33.00;24.75;15.00
78512;PMS5003;67809;55.034;73.462;2023-03-01T06:32:23;40.75;30.75;18.00
78512;PMS5003;67809;55.034;73.462;2023-03-01T06:34:49;37.00;28.00;17.00
78512;PMS5003;67809;55.034;73.462;2023-03-01T06:37:15;37.25;30.00;18.00
78512;PMS5003;67809;55.034;73.462;2023-03-01T06:39:41;36.25;29.00;18.00
78512;PMS5003;67809;55.034;73.462;2023-03-01T06:42:08;38.00;30.00;18.00
78512;PMS5003;67809;55.034;73.462;2023-03-01T06:44:36;38.00;30.25;19.00
78512;PMS5003;67809;55.034;73.462;2023-03-01T06:47:02;43.50;32.00;20.00
78512;PMS5003;67809;55.034;73.462;2023-03-01T06:49:33;39.00;31.00;19.00
78512;PMS5003;67809;55.034;73.462;2023-03-01T06:52:09;45.00;35.00;20.75
78512;PMS5003;67809;55.034;73.462;2023-03-01T06:54:35;38.00;29.00;18.00
78512;PMS5003;67809;55.034;73.462;2023-03-01T06:57:01;40.50;30.25;18.50
78512;PMS5003;67809;55.034;73.462;2023-03-01T06:59:27;44.25;32.25;20.00
78512;PMS5003;67809;55.034;73.462;2023-03-01T07:01:53;40.50;31.25;20.00
78512;PMS5003;67809;55.034;73.462;2023-03-01T07:04:29;45.50;33.25;20.00
78512;PMS5003;67809;55.034;73.462;2023-03-01T07:06:56;43.25;33.00;20.00
78512;PMS5003;67809;55.034;73.462;2023-03-01T07:09:22;47.33;36.00;22.00
78512;PMS5003;67809;55.034;73.462;2023-03-01T07:11:56;41.25;32.00;20.00
78512;PMS5003;67809;55.034;73.462;2023-03-01T07:14:22;44.25;33.00;20.00
78512;PMS5003;67809;55.034;73.462;2023-03-01T07:16:55;44.00;33.75;21.00
78512;PMS5003;67809;55.034;73.462;2023-03-01T07:19:21;49.00;37.00;23.00
78512;PMS5003;67809;55.034;73.462;2023-03-01T07:21:47;53.00;38.00;23.00
78512;PMS5003;67809;55.034;73.462;2023-03-01T07:24:13;50.00;36.00;22.00
78512;PMS5003;67809;55.034;73.462;2023-03-01T07:26:39;49.25;37.00;22.50
78512;PMS5003;67809;55.034;73.462;2023-03-01T07:29:10;43.00;32.00;19.25
78512;PMS5003;67809;55.034;73.462;2023-03-01T07:31:36;45.25;36.00;21.00
78512;PMS5003;67809;55.034;73.462;2023-03-01T07:34:13;46.50;35.00;21.75
78512;PMS5003;67809;55.034;73.462;2023-03-01T07:36:39;45.75;33.75;22.00
78512;PMS5003;67809;55.034;73.462;2023-03-01T07:39:12;46.33;34.33;21.00
78512;PMS5003;67809;55.034;73.462;2023-03-01T07:41:38;48.25;37.00;22.00
78512;PMS5003;67809;55.034;73.462;2023-03-01T07:44:05;41.50;32.25;19.25
78512;PMS5003;67809;55.034;73.462;2023-03-01T07:46:31;51.50;37.50;23.00
78512;PMS5003;67809;55.034;73.462;2023-03-01T07:48:57;44.50;34.25;21.00
78512;PMS5003;67809;55.034;73.462;2023-03-01T07:51:23;40.00;32.33;20.67
78512;PMS5003;67809;55.034;73.462;2023-03-01T07:53:49;50.00;35.25;22.00
78512;PMS5003;67809;55.034;73.462;2023-03-01T07:56:15;41.75;31.00;18.00
78512;PMS5003;67809;55.034;73.462;2023-03-01T07:58:53;44.00;34.00;21.00
78512;PMS5003;67809;55.034;73.462;2023-03-01T08:01:23;40.00;31.00;17.50
78512;PMS5003;67809;55.034;73.462;2023-03-01T08:03:59;42.00;33.50;21.00
78512;PMS5003;67809;55.034;73.462;2023-03-01T08:06:28;39.75;32.00;20.00
78512;PMS5003;67809;55.034;73.462;2023-03-01T08:09:00;44.50;35.00;22.00
78512;PMS5003;67809;55.034;73.462;2023-03-01T08:11:26;42.50;33.00;20.25
78512;PMS5003;67809;55.034;73.462;2023-03-01T08:13:58;41.25;32.00;20.00
78512;PMS5003;67809;55.034;73.462;2023-03-01T08:16:25;45.50;34.25;20.25
78512;PMS5003;67809;55.034;73.462;2023-03-01T08:18:51;43.00;34.00;20.75
78512;PMS5003;67809;55.034;73.462;2023-03-01T08:21:26;38.33;30.00;19.00
78512;PMS5003;67809;55.034;73.462;2023-03-01T08:23:52;44.00;34.00;21.00
78512;PMS5003;67809;55.034;73.462;2023-03-01T08:26:19;45.00;35.00;20.00
78512;PMS5003;67809;55.034;73.462;2023-03-01T08:28:45;44.25;32.50;21.00
78512;PMS5003;67809;55.034;73.462;2023-03-01T08:31:16;39.67;30.67;19.67
78512;PMS5003;67809;55.034;73.462;2023-03-01T08:33:43;41.00;32.00;20.00
78512;PMS5003;67809;55.034;73.462;2023-03-01T08:36:15;37.00;30.00;19.00
78512;PMS5003;67809;55.034;73.462;2023-03-01T08:38:41;42.25;32.75;19.00
78512;PMS5003;67809;55.034;73.462;2023-03-01T08:41:07;41.33;30.33;18.33
78512;PMS5003;67809;55.034;73.462;2023-03-01T08:43:33;34.75;27.75;19.00
78512;PMS5003;67809;55.034;73.462;2023-03-01T08:45:59;36.00;29.00;18.25
78512;PMS5003;67809;55.034;73.462;2023-03-01T08:48:27;37.00;30.00;19.00
78512;PMS5003;67809;55.034;73.462;2023-03-01T08:50:53;40.25;30.75;19.00
78512;PMS5003;67809;55.034;73.462;2023-03-01T08:53:19;37.50;28.75;18.00
78512;PMS5003;67809;55.034;73.462;2023-03-01T08:55:55;38.00;30.00;18.00
78512;PMS5003;67809;55.034;73.462;2023-03-01T08:58:36;35.25;27.25;17.00
78512;PMS5003;67809;55.034;73.462;2023-03-01T09:01:08;38.00;29.00;18.00
78512;PMS5003;67809;55.034;73.462;2023-03-01T09:03:34;43.75;32.25;19.75
78512;PMS5003;67809;55.034;73.462;2023-03-01T09:06:01;44.25;35.00;21.00
78512;PMS5003;67809;55.034;73.462;2023-03-01T09:08:27;44.25;34.00;21.00
78512;PMS5003;67809;55.034;73.462;2023-03-01T09:11:00;41.00;32.25;21.00
78512;PMS5003;67809;55.034;73.462;2023-03-01T09:13:30;41.25;32.00;19.50
78512;PMS5003;67809;55.034;73.462;2023-03-01T09:16:08;34.75;27.00;16.75
78512;PMS5003;67809;55.034;73.462;2023-03-01T09:18:35;38.00;29.50;17.75
78512;PMS5003;67809;55.034;73.462;2023-03-01T09:21:04;41.67;33.00;20.67
78512;PMS5003;67809;55.034;73.462;2023-03-01T09:23:34;42.00;33.00;21.00
78512;PMS5003;67809;55.034;73.462;2023-03-01T09:26:02;44.25;34.50;22.00
78512;PMS5003;67809;55.034;73.462;2023-03-01T09:28:28;40.00;30.50;18.25
78512;PMS5003;67809;55.034;73.462;2023-03-01T09:30:57;39.00;31.00;20.00
78512;PMS5003;67809;55.034;73.462;2023-03-01T09:33:29;41.00;31.25;20.00
78512;PMS5003;67809;55.034;73.462;2023-03-01T09:36:06;38.25;30.00;19.00
78512;PMS5003;67809;55.034;73.462;2023-03-01T09:38:33;40.00;30.00;20.00
78512;PMS5003;67809;55.034;73.462;2023-03-01T09:40:59;42.00;31.00;20.00
78512;PMS5003;67809;55.034;73.462;2023-03-01T09:43:34;39.00;29.75;20.00
78512;PMS5003;67809;55.034;73.462;2023-03-01T09:46:11;37.75;31.00;20.00
78512;PMS5003;67809;55.034;73.462;2023-03-01T09:51:09;41.00;31.50;19.00
78512;PMS5003;67809;55.034;73.462;2023-03-01T09:53:38;43.25;31.25;21.00
78512;PMS5003;67809;55.034;73.462;2023-03-01T09:56:05;41.00;32.00;20.00
78512;PMS5003;67809;55.034;73.462;2023-03-01T10:03:55;41.00;30.75;19.75
78512;PMS5003;67809;55.034;73.462;2023-03-01T10:06:29;44.25;32.00;21.00
78512;PMS5003;67809;55.034;73.462;2023-03-01T10:08:56;40.25;31.00;20.00
78512;PMS5003;67809;55.034;73.462;2023-03-01T10:11:37;36.00;28.50;18.00
78512;PMS5003;67809;55.034;73.462;2023-03-01T10:14:16;39.50;31.75;19.00
78512;PMS5003;67809;55.034;73.462;2023-03-01T10:16:50;41.00;32.00;20.00
78512;PMS5003;67809;55.034;73.462;2023-03-01T10:19:23;34.00;27.00;17.00
78512;PMS5003;67809;55.034;73.462;2023-03-01T10:21:50;41.00;31.00;19.00
78512;PMS5003;67809;55.034;73.462;2023-03-01T10:24:27;42.25;32.25;19.00
78512;PMS5003;67809;55.034;73.462;2023-03-01T10:27:04;40.00;30.50;19.00
78512;PMS5003;67809;55.034;73.462;2023-03-01T10:29:39;41.00;31.00;19.00
78512;PMS5003;67809;55.034;73.462;2023-03-01T10:32:13;38.50;30.00;19.00
78512;PMS5003;67809;55.034;73.462;2023-03-01T10:34:44;40.50;31.00;19.00
78512;PMS5003;67809;55.034;73.462;2023-03-01T10:37:12;42.00;32.00;20.00
78512;PMS5003;67809;55.034;73.462;2023-03-01T10:39:55;41.00;31.00;20.00
78512;PMS5003;67809;55.034;73.462;2023-03-01T10:42:28;41.33;32.00;20.00
78512;PMS5003;67809;55.034;73.462;2023-03-01T10:45:30;40.00;31.00;19.00
78512;PMS5003;67809;55.034;73.462;2023-03-01T10:50:44;38.00;29.00;18.00
78512;PMS5003;67809;55.034;73.462;2023-03-01T10:58:59;41.00;31.25;20.00
78512;PMS5003;67809;55.034;73.462;2023-03-01T11:01:31;40.33;30.67;19.00
78512;PMS5003;67809;55.034;73.462;2023-03-01T11:06:33;42.00;31.00;19.00
78512;PMS5003;67809;55.034;73.462;2023-03-01T11:09:17;41.25;31.50;20.00
78512;PMS5003;67809;55.034;73.462;2023-03-01T11:11:44;43.00;32.67;19.00
78512;PMS5003;67809;55.034;73.462;2023-03-01T11:14:18;37.25;29.00;18.00
78512;PMS5003;67809;55.034;73.462;2023-03-01T11:17:29;40.50;32.25;20.00
78512;PMS5003;67809;55.034;73.462;2023-03-01T11:22:49;44.00;34.00;21.00
78512;PMS5003;67809;55.034;73.462;2023-03-01T11:25:16;43.00;32.00;20.00
78512;PMS5003;67809;55.034;73.462;2023-03-01T11:27:44;44.00;32.75;19.00
78512;PMS5003;67809;55.034;73.462;2023-03-01T11:32:57;44.67;34.00;20.33
78512;PMS5003;67809;55.034;73.462;2023-03-01T11:35:32;42.25;32.25;21.00
78512;PMS5003;67809;55.034;73.462;2023-03-01T11:43:12;45.33;34.00;21.00
78512;PMS5003;67809;55.034;73.462;2023-03-01T11:48:37;42.25;32.25;19.75
78512;PMS5003;67809;55.034;73.462;2023-03-01T11:54:33;49.00;35.75;21.50
78512;PMS5003;67809;55.034;73.462;2023-03-01T11:57:35;49.00;36.75;23.00
78512;PMS5003;67809;55.034;73.462;2023-03-01T12:00:06;48.25;37.00;22.00
78512;PMS5003;67809;55.034;73.462;2023-03-01T12:05:42;51.75;36.00;22.00
78512;PMS5003;67809;55.034;73.462;2023-03-01T12:08:17;47.00;36.00;22.00
78512;PMS5003;67809;55.034;73.462;2023-03-01T12:11:01;48.75;37.00;22.00
78512;PMS5003;67809;55.034;73.462;2023-03-01T12:16:50;46.50;35.75;23.00
78512;PMS5003;67809;55.034;73.462;2023-03-01T12:19:21;47.25;35.75;21.75
78512;PMS5003;67809;55.034;73.462;2023-03-01T12:24:25;50.50;37.50;22.75
78512;PMS5003;67809;55.034;73.462;2023-03-01T12:32:20;51.50;38.50;24.00
78512;PMS5003;67809;55.034;73.462;2023-03-01T12:37:25;50.75;36.00;22.00
78512;PMS5003;67809;55.034;73.462;2023-03-01T12:50:41;49.25;37.50;23.50
78512;PMS5003;67809;55.034;73.462;2023-03-01T12:56:10;44.25;33.25;20.75
78512;PMS5003;67809;55.034;73.462;2023-03-01T13:01:16;47.75;36.00;21.75
78512;PMS5003;67809;55.034;73.462;2023-03-01T13:11:33;56.75;40.50;24.50
78512;PMS5003;67809;55.034;73.462;2023-03-01T13:16:45;58.25;41.00;23.50
78512;PMS5003;67809;55.034;73.462;2023-03-01T13:19:18;59.25;42.00;24.50
78512;PMS5003;67809;55.034;73.462;2023-03-01T13:21:46;59.25;42.00;25.75
78512;PMS5003;67809;55.034;73.462;2023-03-01T13:24:26;55.67;40.00;24.67
78512;PMS5003;67809;55.034;73.462;2023-03-01T13:35:01;50.67;36.00;22.00
78512;PMS5003;67809;55.034;73.462;2023-03-01T13:37:30;47.00;36.00;23.00
78512;PMS5003;67809;55.034;73.462;2023-03-01T13:45:47;46.25;34.75;20.50
78512;PMS5003;67809;55.034;73.462;2023-03-01T13:48:21;50.00;36.25;21.25
78512;PMS5003;67809;55.034;73.462;2023-03-01T13:50:50;51.00;36.00;23.00
78512;PMS5003;67809;55.034;73.462;2023-03-01T13:53:18;48.75;36.75;22.00
78512;PMS5003;67809;55.034;73.462;2023-03-01T13:55:46;53.00;37.75;23.00
78512;PMS5003;67809;55.034;73.462;2023-03-01T14:00:43;73.25;51.00;29.00
78512;PMS5003;67809;55.034;73.462;2023-03-01T14:03:18;63.67;47.00;27.00
78512;PMS5003;67809;55.034;73.462;2023-03-01T14:06:06;64.75;46.50;27.00
78512;PMS5003;67809;55.034;73.462;2023-03-01T14:08:43;60.25;43.00;25.00
78512;PMS5003;67809;55.034;73.462;2023-03-01T14:21:28;51.00;37.50;23.50
78512;PMS5003;67809;55.034;73.462;2023-03-01T14:23:56;55.00;39.67;24.00
78512;PMS5003;67809;55.034;73.462;2023-03-01T14:26:23;49.00;37.75;23.25
78512;PMS5003;67809;55.034;73.462;2023-03-01T14:28:49;57.00;40.00;25.25
78512;PMS5003;67809;55.034;73.462;2023-03-01T14:31:32;51.50;39.25;24.25
78512;PMS5003;67809;55.034;73.462;2023-03-01T14:34:06;50.00;37.00;22.00
78512;PMS5003;67809;55.034;73.462;2023-03-01T14:36:33;46.50;35.50;21.75
78512;PMS5003;67809;55.034;73.462;2023-03-01T14:39:15;44.00;33.25;20.75
78512;PMS5003;67809;55.034;73.462;2023-03-01T14:41:48;52.75;38.25;22.25
78512;PMS5003;67809;55.034;73.462;2023-03-01T14:44:16;48.00;35.00;21.75
78512;PMS5003;67809;55.034;73.462;2023-03-01T14:46:54;44.00;32.25;20.50
78512;PMS5003;67809;55.034;73.462;2023-03-01T14:49:23;45.00;34.00;21.00
78512;PMS5003;67809;55.034;73.462;2023-03-01T14:52:01;42.75;30.75;19.75
78512;PMS5003;67809;55.034;73.462;2023-03-01T14:57:02;44.75;34.00;21.75
78512;PMS5003;67809;55.034;73.462;2023-03-01T14:59:29;49.00;37.00;21.25
78512;PMS5003;67809;55.034;73.462;2023-03-01T15:01:56;40.25;31.00;19.00
78512;PMS5003;67809;55.034;73.462;2023-03-01T15:04:32;42.67;33.00;20.00
78512;PMS5003;67809;55.034;73.462;2023-03-01T15:07:04;45.00;33.00;19.00
78512;PMS5003;67809;55.034;73.462;2023-03-01T15:09:41;48.00;34.75;21.00
78512;PMS5003;67809;55.034;73.462;2023-03-01T15:17:59;41.00;32.00;20.00
78512;PMS5003;67809;55.034;73.462;2023-03-01T15:20:26;42.00;33.00;20.00
78512;PMS5003;67809;55.034;73.462;2023-03-01T15:22:55;43.50;32.25;19.25
78512;PMS5003;67809;55.034;73.462;2023-03-01T15:25:27;43.00;32.75;20.50
78512;PMS5003;67809;55.034;73.462;2023-03-01T15:27:54;44.50;33.00;20.50
78512;PMS5003;67809;55.034;73.462;2023-03-01T15:30:34;43.50;32.75;20.00
78512;PMS5003;67809;55.034;73.462;2023-03-01T15:35:50;46.67;33.00;21.00
78512;PMS5003;67809;55.034;73.462;2023-03-01T15:38:24;48.75;35.50;21.00
78512;PMS5003;67809;55.034;73.462;2023-03-01T15:40:51;44.50;33.50;20.75
78512;PMS5003;67809;55.034;73.462;2023-03-01T15:46:05;46.00;34.33;21.33
78512;PMS5003;67809;55.034;73.462;2023-03-01T15:48:31;48.00;37.00;23.50
78512;PMS5003;67809;55.034;73.462;2023-03-01T15:51:09;46.75;35.00;21.75
78512;PMS5003;67809;55.034;73.462;2023-03-01T15:53:38;45.75;34.00;21.75
78512;PMS5003;67809;55.034;73.462;2023-03-01T15:56:05;46.33;35.00;22.00
78512;PMS5003;67809;55.034;73.462;2023-03-01T15:58:33;48.00;34.00;20.00
78512;PMS5003;67809;55.034;73.462;2023-03-01T16:01:00;45.75;34.25;20.25
78512;PMS5003;67809;55.034;73.462;2023-03-01T16:03:37;47.00;35.25;22.00